South Windsor, Connecticut
Current Conditions -  °F | °C
As of 1:53 AM on Friday 19 Dec 2014 (Local Time) from KHFD Reporting Station
Overcast Overcast  
Wind Chill: 30°   Ceiling: 4600
Heat Index: 36°   Visibility: 10mi
Dew Point: 26°   Wind: 8mph
Humidity: 67%   Direction: 300°WNW
Pressure: 29.94"   Gusts: NA
Location:  41.82°N, 72.62°W
Report Text: KHFD 190653Z 30007KT 260V320 10SM OVC046 02/M03 A2994 RMK AO2 SLP137 T00221033
Loading
Personal Weather Stations






























Interactive Weather Map New forecast layout! Learn more

10-Day Weather Forecast

Advertisements
Track Severe Weather on mobile